Bookmark and Share
Track history (hours):
 

Oceanographic research ship James Clark Ross (UK)

Detailed information on ship capabilities available from University of Delaware's Ocean Information Center and ARCUS's ALIAS (Arctic Logistics Information and Support) project.

Last reported at 2014-Apr-20 14:00 UTC. Time now 2014-Apr-20 16:05 UTC.
Position S 53°18' W 044°24'.

Length 99 m; beam 18.8 m; draft 6.3 m.

Type: Other ship. MMSI: 740339000.

Barometer 1004.6 mb
Air temperature 3.1 ° C
Dewpoint 1.7 ° C

NotesDate/timePositionNaut miles runAvg speedWind from/ knotsBaromVisibWave heightAir tempDewpointWater temp
AWS2014-Apr-20 14:00S 53°18' W 044°24'1110.8 1004.6 3.1 1.7
AWS2014-Apr-20 13:00S 53°18' W 044°06'1110.8 1004.3 2.8 1.4
AWS2014-Apr-20 12:00S 53°18' W 043°48'0 0.0 1004.0 3.2 1.8
AWS2014-Apr-20 11:00S 53°18' W 043°48'4 3.6 1003.7 2.8 1.6
AWS2014-Apr-20 10:00S 53°18' W 043°42'29 9.8 1003.1 2.9 1.7
AWS2014-Apr-20 07:00S 53°24' W 042°54'14 7.0 1001.8 2.9 1.2
AWS2014-Apr-20 05:00S 53°12' W 042°42'6 6.0 1000.9 2.7 1.2
AWS2014-Apr-20 04:00S 53°06' W 042°42'1212.0 1000.8 3.1 1.7
AWS2014-Apr-20 03:00S 52°54' W 042°42'1312.5 1000.3 3.2 2.4
AWS2014-Apr-20 02:00S 52°42' W 042°36'1212.0 999.8 3.4 2.7
AWS2014-Apr-20 01:00S 52°30' W 042°36'1212.0 999.6 4.2 3.5
AWS2014-Apr-20 00:00S 52°18' W 042°36'7 7.0 999.4 4.8 4.1
AWS2014-Apr-19 23:00S 52°12' W 042°30'1212.0 998.9 4.8 4.1
AWS2014-Apr-19 22:00S 52°00' W 042°30'1212.0 999.1 4.9 4.1
AWS2014-Apr-19 21:00S 51°48' W 042°30'1312.6 998.9 5.1 4.2
AWS2014-Apr-19 20:00S 51°36' W 042°24'1212.0 998.7 5.2 4.2
AWS2014-Apr-19 19:00S 51°24' W 042°24'6 6.0 998.6 5.5 4.6
AWS2014-Apr-19 18:00S 51°18' W 042°24'1312.6 999.0 5.5 4.7
AWS2014-Apr-19 17:00S 51°06' W 042°18'1212.0 999.2 5.8 4.9
AWS2014-Apr-19 16:00S 50°54' W 042°18'6 6.0 1000.1 5.9 4.8
AWS2014-Apr-19 15:00S 50°48' W 042°18'1312.6 1000.5 6.2 5.0
AWS2014-Apr-19 14:00S 50°36' W 042°12'1212.0 1001.1 6.1 4.9
AWS2014-Apr-19 13:00S 50°24' W 042°12'6 6.0 1001.7 6.3 5.2
AWS2014-Apr-19 12:00S 50°18' W 042°12'2412.2 1002.6 6.3 5.3
AWS2014-Apr-19 10:00S 49°54' W 042°06'6 6.0 1004.3 6.3 5.2
AWS2014-Apr-19 09:00S 49°48' W 042°06'2412.2 1005.0 6.4 5.4
AWS2014-Apr-19 07:00S 49°24' W 042°00'0 0.0 1006.2 6.5 5.5
AWS2014-Apr-19 06:00S 49°24' W 042°00'0 0.0 030 / 161006.610.8 0.5 6.2 4.9 5.5
AWS2014-Apr-19 05:00S 49°24' W 042°00'0 0.0 1006.9 6.2 5.0
AWS2014-Apr-19 04:00S 49°24' W 042°00'0 0.0 1007.9 6.0 4.6
AWS2014-Apr-19 03:00S 49°24' W 042°00'6 6.0 1008.0 6.4 4.7
AWS2014-Apr-19 02:00S 49°18' W 042°00'1212.0 1008.5 5.7 4.5
AWS2014-Apr-19 01:00S 49°06' W 042°00'12 6.0 1009.1 6.5 5.2
AWS2014-Apr-18 23:00S 48°54' W 042°00'0 0.0 1008.9 7.4 5.1
AWS2014-Apr-18 20:00S 48°54' W 042°00'0 0.0 1008.2 7.8 5.3
AWS2014-Apr-18 19:00S 48°54' W 042°00'1212.0 1008.1 7.6 5.4
AWS2014-Apr-18 18:00S 48°42' W 042°00'1312.6 1007.6 7.5 5.4
AWS2014-Apr-18 17:00S 48°30' W 041°54'0 0.0 1007.4 8.0 5.1
AWS2014-Apr-18 16:00S 48°30' W 041°54'4 4.0 1007.3 10.9 5.0
AWS2014-Apr-18 15:00S 48°30' W 042°00'0 0.0 1007.9 10.1 5.4
AWS2014-Apr-18 13:00S 48°30' W 042°00'6 6.0 1007.6 10.2 5.1
AWS2014-Apr-18 12:00S 48°24' W 042°00'1212.0 1007.6 9.9 4.9
AWS2014-Apr-18 11:00S 48°12' W 042°00'7 7.2 1007.2 11.2 4.8
AWS2014-Apr-18 10:00S 48°06' W 041°54'1212.0 1006.9 10.3 5.3
AWS2014-Apr-18 09:00S 47°54' W 041°54'4 2.0 1007.0 10.4 5.4
AWS2014-Apr-18 07:00S 47°54' W 042°00'0 0.0 1007.0 10.7 6.5
AWS2014-Apr-18 06:00S 47°54' W 042°00'0 0.0 1007.6 10.5 5.5
AWS2014-Apr-18 05:00S 47°54' W 042°00'1312.7 1008.1 10.7 5.8
AWS2014-Apr-18 04:00S 48°06' W 041°54'7 7.2 1008.3 10.4 5.4
AWS2014-Apr-18 03:00S 48°12' W 041°48'4 2.0 1009.2 10.1 7.2
AWS2014-Apr-18 01:00S 48°12' W 041°54'4 4.0 1010.3 9.7 5.9
AWS2014-Apr-18 00:00S 48°12' W 042°00'0 0.0 1010.8 9.0 5.3
AWS2014-Apr-17 23:00S 48°12' W 042°00'1212.0 1011.0 8.6 5.6
AWS2014-Apr-17 22:00S 48°24' W 042°00'1212.0 1010.7 7.7 4.6
AWS2014-Apr-17 21:00S 48°36' W 042°00'6 6.0 1010.2 7.3 4.3
AWS2014-Apr-17 20:00S 48°42' W 042°00'0 0.0 1009.8 7.5 4.2
AWS2014-Apr-17 19:00S 48°42' W 042°00'0 0.0 1009.5 7.9 3.7
AWS2014-Apr-17 17:00S 48°42' W 042°00'3010.0 1008.5 8.5 4.1
AWS2014-Apr-17 14:00S 49°12' W 042°00'0 0.0 1005.7 8.1 4.5
AWS2014-Apr-17 13:00S 49°12' W 042°00'0 0.0 1004.9 8.0 4.6
AWS2014-Apr-17 12:00S 49°12' W 042°00'0 0.0 1003.9 8.1 4.9
AWS2014-Apr-17 11:00S 49°12' W 042°00'0 0.0 1002.9 7.8 4.4
AWS2014-Apr-17 10:00S 49°12' W 042°00'1212.0 1001.0 7.2 4.6
AWS2014-Apr-17 09:00S 49°24' W 042°00'6 6.0 998.6 7.1 3.9
AWS2014-Apr-17 08:00S 49°30' W 042°00'1212.0 996.8 8.5 6.4
AWS2014-Apr-17 07:00S 49°42' W 042°00'1212.0 994.6 8.8 8.1
AWS2014-Apr-17 06:00S 49°54' W 042°00'0 0.0 993.8 8.5 8.1
AWS2014-Apr-17 05:00S 49°54' W 042°00'0 0.0 993.9 8.8 8.4
AWS2014-Apr-17 04:00S 49°54' W 042°00'7 7.1 993.7 8.5 8.1
AWS2014-Apr-17 03:00S 50°00' W 041°54'20 9.8 994.4 8.0 7.6
AWS2014-Apr-17 01:00S 50°18' W 041°42'10 9.7 996.4 6.8 6.4
AWS2014-Apr-17 00:00S 50°24' W 041°30'12 6.0 996.7 7.0 6.6
AWS2014-Apr-16 22:00S 50°36' W 041°30'8 7.6 997.7 6.5 6.0
AWS2014-Apr-16 21:00S 50°36' W 041°18'10 9.7 998.3 6.3 5.8
AWS2014-Apr-16 20:00S 50°42' W 041°06'10 9.7 998.6 6.1 5.6
AWS2014-Apr-16 19:00S 50°48' W 040°54'0 0.0 999.7 6.0 5.5
AWS2014-Apr-16 18:00S 50°48' W 040°54'0 0.0 1000.2 6.3 5.7
AWS2014-Apr-16 17:00S 50°48' W 040°54'10 9.7 1000.2 6.9 6.2
AWS2014-Apr-16 16:00S 50°54' W 040°42'10 9.7 1000.2 6.4 5.9
AWS2014-Apr-16 15:00S 51°00' W 040°30'7 2.4 1000.7 6.3 5.8
AWS2014-Apr-16 12:00S 51°06' W 040°24'4 3.8 1001.1 6.3 5.8
AWS2014-Apr-16 11:00S 51°06' W 040°18'1312.8 1000.8 5.6 5.1
AWS2014-Apr-16 10:00S 51°12' W 040°00'7 7.1 1000.7 5.5 5.0
AWS2014-Apr-16 09:00S 51°18' W 039°54'4 1.9 1001.3 5.1 4.6
AWS2014-Apr-16 07:00S 51°18' W 039°48'4 3.8 1001.8 4.8 4.2
AWS2014-Apr-16 06:00S 51°18' W 039°54'24 8.0 1002.7 4.5 3.9
AWS2014-Apr-16 03:00S 51°42' W 039°54'1312.6 1004.4 3.0 1.5
AWS2014-Apr-16 02:00S 51°54' W 040°00'1212.0 1005.0 2.7-0.5
AWS2014-Apr-16 01:00S 52°06' W 040°00'6 6.0 1005.9 2.8-1.4
AWS2014-Apr-16 00:00S 52°12' W 040°00'1312.5 1006.5 2.3-2.7
AWS2014-Apr-15 23:00S 52°24' W 040°06'1212.0 1007.0 1.9-3.9
AWS2014-Apr-15 22:00S 52°36' W 040°06'1312.5 1007.1 1.8-4.3
AWS2014-Apr-15 21:00S 52°48' W 040°12'6 6.0 1006.7 1.7-4.4
AWS2014-Apr-15 20:00S 52°54' W 040°12'1212.0 1006.8 1.8-3.8
AWS2014-Apr-15 19:00S 53°06' W 040°12'1312.5 1006.8 1.6-4.4
AWS2014-Apr-15 18:00S 53°18' W 040°18'1212.0 1006.1 1.3-4.8
AWS2014-Apr-15 17:00S 53°30' W 040°18'1312.5 1005.7 1.2-3.7
AWS2014-Apr-15 16:00S 53°42' W 040°24'1212.0 1005.4 1.1-4.9
AWS2014-Apr-15 15:00S 53°54' W 040°24'0 0.0 1004.8 1.3-5.5
AWS2014-Apr-15 14:00S 53°54' W 040°24'7 7.1 1004.6 1.3-4.3
AWS2014-Apr-15 13:00S 53°54' W 040°12'0 0.0 1004.2 1.7-5.3
AWS2014-Apr-15 12:00S 53°54' W 040°12'7 3.5 1003.7 1.2-4.7
AWS2014-Apr-15 10:00S 53°54' W 040°00'0 0.0 1001.5 1.4-3.4
AWS2014-Apr-15 09:00S 53°54' W 040°00'4 3.5 1000.5 1.5-3.4
AWS2014-Apr-15 08:00S 53°54' W 039°54'0 0.0 999.8 1.5
AWS2014-Apr-15 07:00S 53°54' W 039°54'12 6.1 999.0 1.5
AWS2014-Apr-15 05:00S 54°00' W 039°36'7 7.0 997.8 1.2
AWS2014-Apr-15 04:00S 53°54' W 039°30'7 7.1 996.8 1.4
AWS2014-Apr-15 03:00S 53°54' W 039°18'1110.6 995.7 1.5
AWS2014-Apr-15 02:00S 53°54' W 039°00'39 9.7 995.1 1.6
AWS2014-Apr-14 22:00S 53°54' W 037°54'7 7.1 993.7 2.6
AWS2014-Apr-14 21:00S 53°54' W 037°42'12 6.1 995.0 2.1
AWS2014-Apr-14 19:00S 54°00' W 037°24'0 0.0 995.6 2.9
AWS2014-Apr-14 17:00S 54°00' W 037°24'0 0.0 997.0 3.3
AWS2014-Apr-14 16:00S 54°00' W 037°24'0 0.0 997.4 3.8
AWS2014-Apr-14 15:00S 54°00' W 037°24'0 0.0 997.9 4.1
AWS2014-Apr-14 14:00S 54°00' W 037°24'4 3.5 998.4 3.8
AWS2014-Apr-14 13:00S 54°00' W 037°18'1110.6 998.1 3.1
AWS2014-Apr-14 12:00S 54°00' W 037°00'1212.2 998.3 2.6
AWS2014-Apr-14 11:00S 54°06' W 036°42'1110.6 998.3 1.7
AWS2014-Apr-14 10:00S 54°06' W 036°24'1212.1 998.4 1.2
AWS2014-Apr-14 09:00S 54°12' W 036°06'3511.6 998.7 1.0
AWS2014-Apr-14 06:00S 54°42' W 035°36'9 9.2 999.2 0.5
AWS2014-Apr-14 05:00S 54°48' W 035°24'1212.5 0.7
AWS2014-Apr-14 04:00S 55°00' W 035°18'9 9.1 1001.0 0.8
AWS2014-Apr-14 03:00S 55°06' W 035°06'1211.9 1001.6 1.6
AWS2014-Apr-14 02:00S 55°12' W 034°48'1010.3 1001.8 1.7
AWS2014-Apr-14 01:00S 55°12' W 034°30'0 0.0 1002.2 1.5
AWS2014-Apr-14 00:00S 55°12' W 034°30'7 6.9 1003.0 1.3
AWS2014-Apr-13 23:00S 55°18' W 034°24'0 0.0 1003.6 1.3
AWS2014-Apr-13 22:00S 55°18' W 034°24'7 6.9 1004.0 1.2
AWS2014-Apr-13 21:00S 55°24' W 034°18'9 9.1 1003.6 1.0
AWS2014-Apr-13 20:00S 55°30' W 034°06'0 0.0 1003.5 1.1
AWS2014-Apr-13 19:00S 55°30' W 034°06'0 0.0 1003.5 1.3
AWS2014-Apr-13 18:00S 55°30' W 034°06'1212.5 1003.5 1.3
AWS2014-Apr-13 17:00S 55°42' W 034°00'0 0.0 1003.0 1.3
AWS2014-Apr-13 16:00S 55°42' W 034°00'0 0.0 1003.3 1.4
AWS2014-Apr-13 15:00S 55°42' W 034°00'9 4.5 1003.3 1.6
AWS2014-Apr-13 13:00S 55°48' W 033°48'7 6.9 1002.1 1.7
AWS2014-Apr-13 12:00S 55°54' W 033°42'6 3.0 1001.5 1.8
AWS2014-Apr-13 10:00S 56°00' W 033°42'0 0.0 999.9 1.5
AWS2014-Apr-13 09:00S 56°00' W 033°42'3 3.4 999.4 1.6
AWS2014-Apr-13 08:00S 56°00' W 033°48'7 3.4 998.5 1.3
AWS2014-Apr-13 06:00S 56°06' W 033°54'3 3.3 998.5 1.9
AWS2014-Apr-13 05:00S 56°06' W 033°48'7 3.4 998.5 2.1
AWS2014-Apr-13 03:00S 56°12' W 033°42'0 0.0 999.0 2.0
AWS2014-Apr-13 02:00S 56°12' W 033°42'3 3.3 998.9 2.2
AWS2014-Apr-13 01:00S 56°12' W 033°36'0 0.0 999.3 2.2
AWS2014-Apr-13 00:00S 56°12' W 033°36'9 4.5 998.8 2.4
AWS2014-Apr-12 22:00S 56°18' W 033°24'0 0.0 997.7 1.9
AWS2014-Apr-12 21:00S 56°18' W 033°24'3 3.3 997.3 2.3
AWS2014-Apr-12 20:00S 56°18' W 033°18'0 0.0 996.2 2.4
AWS2014-Apr-12 19:00S 56°18' W 033°18'3 3.3 995.8 2.5
AWS2014-Apr-12 18:00S 56°18' W 033°12'0 0.0 995.4 2.6
AWS2014-Apr-12 17:00S 56°18' W 033°12'6 6.0 994.8 2.9
AWS2014-Apr-12 16:00S 56°24' W 033°12'0 0.0 995.7 3.0
AWS2014-Apr-12 15:00S 56°24' W 033°12'3 3.3 995.7 3.3
AWS2014-Apr-12 14:00S 56°24' W 033°06'0 0.0 996.2 3.2
AWS2014-Apr-12 13:00S 56°24' W 033°06'3 3.3 996.8 3.4
AWS2014-Apr-12 12:00S 56°24' W 033°00'6 6.0 997.0 3.4
AWS2014-Apr-12 11:00S 56°30' W 033°00'0 0.0 996.9 3.4
AWS2014-Apr-12 10:00S 56°30' W 033°00'0 0.0 996.9 3.2
AWS2014-Apr-12 09:00S 56°30' W 033°00'0 0.0 997.5 3.1
AWS2014-Apr-12 08:00S 56°30' W 033°00'6 6.0 997.9 2.6
AWS2014-Apr-12 07:00S 56°24' W 033°00'7 6.9 998.0 2.5
AWS2014-Apr-12 06:00S 56°30' W 032°54'0 0.0 997.5 2.3
AWS2014-Apr-12 05:00S 56°30' W 032°54'6 3.0 997.6 2.3
AWS2014-Apr-12 03:00S 56°36' W 032°54'9 8.9 997.1 2.1
AWS2014-Apr-12 02:00S 56°42' W 032°42'9 8.9 999.6 2.5
AWS2014-Apr-12 01:00S 56°36' W 032°30'0 0.0 1000.3 1.8
AWS2014-Apr-12 00:00S 56°36' W 032°30'0 0.0 1002.4 1.8
AWS2014-Apr-11 23:00S 56°36' W 032°30'12 4.1 1003.4 1.7
AWS2014-Apr-11 20:00S 56°48' W 032°24'6 6.0 1006.2 1.4
AWS2014-Apr-11 19:00S 56°54' W 032°24'0 0.0 1008.1 1.2
AWS2014-Apr-11 18:00S 56°54' W 032°24'12 6.0 1009.3 1.4
AWS2014-Apr-11 16:00S 57°06' W 032°24'6 6.0 1011.8 1.1
AWS2014-Apr-11 15:00S 57°12' W 032°24'6 3.0 1012.6 1.3
AWS2014-Apr-11 13:00S 57°18' W 032°24'0 0.0 1014.9 0.8
AWS2014-Apr-11 12:00S 57°18' W 032°24'9 8.8 1015.9 0.7
AWS2014-Apr-11 11:00S 57°12' W 032°12'9 8.8 1016.6 0.6
AWS2014-Apr-11 10:00S 57°18' W 032°00'3 3.2 1017.3 0.2
AWS2014-Apr-11 09:00S 57°18' W 031°54'0 0.0 1018.3 0.8
AWS2014-Apr-11 07:00S 57°18' W 031°54'9 8.8 1018.5 0.6
AWS2014-Apr-11 06:00S 57°24' W 031°42'1111.4 1018.3
AWS2014-Apr-11 05:00S 57°30' W 031°24'3 3.2 1018.5
AWS2014-Apr-11 04:00S 57°30' W 031°18'0 0.0 1019.0 0.2
AWS2014-Apr-11 03:00S 57°30' W 031°18'0 0.0 1019.2 0.3
AWS2014-Apr-11 02:00S 57°30' W 031°18'7 6.8 1019.5 0.4
AWS2014-Apr-11 01:00S 57°36' W 031°12'9 8.8 1018.8 0.4
AWS2014-Apr-11 00:00S 57°42' W 031°00'6 6.0 1018.6 0.2
AWS2014-Apr-10 23:00S 57°48' W 031°00'0 0.0 1018.9 0.1
AWS2014-Apr-10 21:00S 57°48' W 031°00'25 8.3 1018.8 0.4
AWS2014-Apr-10 18:00S 58°12' W 030°48'0 0.0 1017.0 0.5
AWS2014-Apr-10 17:00S 58°12' W 030°48'0 0.0 1016.9 0.5
AWS2014-Apr-10 15:00S 58°12' W 030°48'1212.4 1016.7 0.4
AWS2014-Apr-10 14:00S 58°24' W 030°42'   1016.5 0.3

Dump ship's entire track history

sailing weather and tide predictions

James Clark Ross — ZDLP — position and weather